createdAt,value
2023-02-01T00:00:18.093Z,49.63
2023-02-01T00:02:47.220Z,49.70
2023-02-01T00:05:17.866Z,52.50
2023-02-01T00:07:51.055Z,49.50
2023-02-01T00:10:21.210Z,50.97
2023-02-01T00:12:50.363Z,48.40
2023-02-01T00:15:19.494Z,49.23
2023-02-01T00:17:48.389Z,46.93
2023-02-01T00:20:19.213Z,48.47
2023-02-01T00:22:48.402Z,50.87
2023-02-01T00:25:17.603Z,92.10
2023-02-01T00:27:50.923Z,85.57
2023-02-01T00:30:20.978Z,80.83
2023-02-01T00:32:50.222Z,53.43
2023-02-01T00:35:20.663Z,60.03
2023-02-01T00:37:49.633Z,69.13
2023-02-01T00:40:18.893Z,76.63
2023-02-01T00:42:48.161Z,61.17
2023-02-01T00:45:18.178Z,75.47
2023-02-01T00:47:47.121Z,66.83
2023-02-01T00:50:36.034Z,76.20
2023-02-01T00:53:04.964Z,71.13
2023-02-01T00:55:34.057Z,71.70
2023-02-01T00:58:03.119Z,81.43
2023-02-01T01:00:32.186Z,71.47
2023-02-01T01:03:01.277Z,70.20
2023-02-01T01:05:30.247Z,92.87
2023-02-01T01:08:00.733Z,107.40
2023-02-01T01:10:29.796Z,153.13
2023-02-01T01:12:59.794Z,170.97
2023-02-01T01:15:28.821Z,91.23
2023-02-01T01:18:16.289Z,57.43
2023-02-01T01:20:45.354Z,69.40
2023-02-01T01:23:15.856Z,56.50
2023-02-01T01:25:44.821Z,56.07
2023-02-01T01:28:13.776Z,71.03
2023-02-01T01:30:42.770Z,63.63
2023-02-01T01:33:12.052Z,63.03
2023-02-01T01:35:40.934Z,66.57
2023-02-01T01:38:12.017Z,66.40
2023-02-01T01:40:42.491Z,67.40
2023-02-01T01:43:16.688Z,74.23
2023-02-01T01:45:45.974Z,77.47
2023-02-01T01:48:21.374Z,76.40
2023-02-01T01:50:56.669Z,85.37
2023-02-01T01:53:29.704Z,82.33
2023-02-01T01:56:00.555Z,85.80
2023-02-01T01:58:31.487Z,74.50
2023-02-01T02:01:00.603Z,74.80
2023-02-01T02:03:35.844Z,78.60
2023-02-01T02:06:09.009Z,77.33
2023-02-01T02:08:38.268Z,84.13
2023-02-01T02:11:14.311Z,75.03
2023-02-01T02:13:45.529Z,81.13
2023-02-01T02:16:42.912Z,82.50
2023-02-01T02:19:50.910Z,70.87
2023-02-01T02:22:55.556Z,62.83
2023-02-01T02:25:49.080Z,63.10
2023-02-01T02:28:47.952Z,65.13
2023-02-01T02:31:44.043Z,57.40
2023-02-01T02:34:20.443Z,50.67
2023-02-01T02:37:00.868Z,43.73
2023-02-01T02:39:43.725Z,41.97
2023-02-01T02:42:35.115Z,37.30
2023-02-01T02:45:27.219Z,32.57
2023-02-01T02:48:00.518Z,35.07
2023-02-01T02:51:02.757Z,42.40
2023-02-01T02:53:57.794Z,81.80
2023-02-01T02:56:45.604Z,39.83
2023-02-01T02:59:35.525Z,42.13
2023-02-01T03:02:21.860Z,74.97
2023-02-01T03:04:57.737Z,38.33
2023-02-01T03:07:59.708Z,38.83
2023-02-01T03:10:38.300Z,36.43
2023-02-01T03:13:11.593Z,38.00
2023-02-01T03:15:44.721Z,36.67
2023-02-01T03:18:19.333Z,39.07
2023-02-01T03:20:53.568Z,44.60
2023-02-01T03:23:28.935Z,48.80
2023-02-01T03:26:01.072Z,48.20
2023-02-01T03:28:35.408Z,49.53
2023-02-01T03:31:05.536Z,46.67
2023-02-01T03:33:34.977Z,47.37
2023-02-01T03:36:14.351Z,46.97
2023-02-01T03:38:53.158Z,50.47
2023-02-01T03:41:29.850Z,53.00
2023-02-01T03:44:04.917Z,52.73
2023-02-01T03:46:57.463Z,77.97
2023-02-01T03:49:30.907Z,91.37
2023-02-01T03:52:02.171Z,51.30
2023-02-01T03:54:34.227Z,48.53
2023-02-01T03:57:07.616Z,48.90
2023-02-01T03:59:40.277Z,48.80
2023-02-01T04:02:09.696Z,51.20
2023-02-01T04:04:39.105Z,69.87
2023-02-01T04:07:08.484Z,66.33
2023-02-01T04:09:38.936Z,63.73
2023-02-01T04:12:08.979Z,57.47
2023-02-01T04:14:38.080Z,57.17
2023-02-01T04:17:07.049Z,51.50
2023-02-01T04:19:35.960Z,42.87
2023-02-01T04:22:04.993Z,42.90
2023-02-01T04:24:33.860Z,42.93
2023-02-01T04:27:04.606Z,44.53
2023-02-01T04:29:33.688Z,46.97
2023-02-01T04:32:02.649Z,51.47
2023-02-01T04:34:32.011Z,45.27
2023-02-01T04:37:01.382Z,32.73
2023-02-01T04:39:30.335Z,45.80
2023-02-01T04:41:59.408Z,46.37
2023-02-01T04:44:29.830Z,39.50
2023-02-01T04:46:59.876Z,50.43
2023-02-01T04:49:29.135Z,47.57
2023-02-01T04:51:58.093Z,60.43
2023-02-01T04:54:27.036Z,54.83
2023-02-01T04:56:56.064Z,55.00
2023-02-01T04:59:25.051Z,42.97
2023-02-01T05:01:55.523Z,46.40
2023-02-01T05:04:24.537Z,40.20
2023-02-01T05:06:53.375Z,42.60
2023-02-01T05:09:23.056Z,35.97
2023-02-01T05:12:09.677Z,41.70
2023-02-01T05:14:38.685Z,42.50
2023-02-01T05:17:09.197Z,40.50
2023-02-01T05:19:38.358Z,51.87
2023-02-01T05:22:07.360Z,50.83
2023-02-01T05:24:36.997Z,42.83
2023-02-01T05:27:11.748Z,41.90
2023-02-01T05:29:40.784Z,46.60
2023-02-01T05:32:22.004Z,47.10
2023-02-01T05:34:51.852Z,39.47
2023-02-01T05:37:20.836Z,42.90
2023-02-01T05:39:49.760Z,42.50
2023-02-01T05:42:18.834Z,41.13
2023-02-01T05:44:47.785Z,37.27
2023-02-01T05:47:18.168Z,39.87
2023-02-01T05:49:47.663Z,43.50
2023-02-01T05:52:20.445Z,46.50
2023-02-01T05:54:49.654Z,50.03
2023-02-01T05:57:18.836Z,50.30
2023-02-01T05:59:48.679Z,55.17
2023-02-01T06:02:19.873Z,60.20
2023-02-01T06:05:08.766Z,62.57
2023-02-01T06:07:37.674Z,67.93
2023-02-01T06:10:07.779Z,70.10
2023-02-01T06:12:36.730Z,77.43
2023-02-01T06:15:06.239Z,124.67
2023-02-01T06:17:36.739Z,199.07
2023-02-01T06:20:07.777Z,77.63
2023-02-01T06:22:37.268Z,48.00
2023-02-01T06:25:07.071Z,46.77
2023-02-01T06:27:36.975Z,75.63
2023-02-01T06:30:07.031Z,81.33
2023-02-01T06:32:38.243Z,76.37
2023-02-01T06:35:25.757Z,48.47
2023-02-01T06:37:54.839Z,40.17
2023-02-01T06:40:24.233Z,38.57
2023-02-01T06:42:53.495Z,39.30
2023-02-01T06:45:22.572Z,62.03
2023-02-01T06:47:53.254Z,49.53
2023-02-01T06:50:22.604Z,49.20
2023-02-01T06:52:51.837Z,46.53
2023-02-01T06:55:20.858Z,54.90
2023-02-01T06:57:49.873Z,51.83
2023-02-01T07:00:19.821Z,43.30
2023-02-01T07:02:48.824Z,38.57
2023-02-01T07:05:19.436Z,37.47
2023-02-01T07:07:48.515Z,58.07
2023-02-01T07:10:17.875Z,48.67
2023-02-01T07:12:46.810Z,93.13
2023-02-01T07:15:15.917Z,118.63
2023-02-01T07:17:45.932Z,91.77
2023-02-01T07:20:15.076Z,93.80
2023-02-01T07:22:45.516Z,95.70
2023-02-01T07:25:14.470Z,79.32
2023-02-01T07:27:43.410Z,96.10
2023-02-01T07:30:13.807Z,131.77
2023-02-01T07:32:43.381Z,153.13
2023-02-01T07:35:12.480Z,141.33
2023-02-01T07:37:41.474Z,148.47
2023-02-01T07:40:13.611Z,147.17
2023-02-01T07:42:42.714Z,168.37
2023-02-01T07:45:21.468Z,203.10
2023-02-01T07:47:51.081Z,198.53
2023-02-01T07:50:20.606Z,164.40
2023-02-01T07:52:49.678Z,135.10
2023-02-01T07:55:20.338Z,138.10
2023-02-01T07:57:49.409Z,120.50
2023-02-01T08:00:36.337Z,135.67
2023-02-01T08:03:07.055Z,145.87
2023-02-01T08:05:38.135Z,125.00
2023-02-01T08:08:08.193Z,97.70
2023-02-01T08:10:38.861Z,85.90
2023-02-01T08:13:07.887Z,76.40
2023-02-01T08:15:36.817Z,63.27
2023-02-01T08:18:06.211Z,70.57
2023-02-01T08:20:37.272Z,68.37
2023-02-01T08:23:09.973Z,80.60
2023-02-01T08:25:40.694Z,63.73
2023-02-01T08:28:10.167Z,65.73
2023-02-01T08:30:40.203Z,73.73
2023-02-01T08:33:09.225Z,61.77
2023-02-01T08:35:43.652Z,52.43
2023-02-01T08:38:13.442Z,56.07
2023-02-01T08:40:43.886Z,58.83
2023-02-01T08:43:12.979Z,66.77
2023-02-01T08:45:42.833Z,117.23
2023-02-01T08:48:11.726Z,89.27
2023-02-01T08:50:40.885Z,72.07
2023-02-01T08:53:09.819Z,72.10
2023-02-01T08:55:38.857Z,72.63
2023-02-01T08:58:09.311Z,66.77
2023-02-01T09:00:38.259Z,64.93
2023-02-01T09:03:07.206Z,84.97
2023-02-01T09:05:48.792Z,59.73
2023-02-01T09:08:20.165Z,47.73
2023-02-01T09:10:49.161Z,44.97
2023-02-01T09:13:19.531Z,49.53
2023-02-01T09:15:48.618Z,58.60
2023-02-01T09:18:17.763Z,49.87
2023-02-01T09:20:46.763Z,47.83
2023-02-01T09:23:15.766Z,54.47
2023-02-01T09:25:44.840Z,61.10
2023-02-01T09:28:13.862Z,52.77
2023-02-01T09:30:44.296Z,65.47
2023-02-01T09:33:13.388Z,60.57
2023-02-01T09:35:42.500Z,53.93
2023-02-01T09:38:11.451Z,52.83
2023-02-01T09:40:47.972Z,52.93
2023-02-01T09:43:30.298Z,49.43
2023-02-01T09:46:11.531Z,43.23
2023-02-01T09:48:44.205Z,46.43
2023-02-01T09:51:19.100Z,44.33
2023-02-01T09:53:55.044Z,31.77
2023-02-01T09:56:29.037Z,29.10
2023-02-01T09:59:04.437Z,33.57
2023-02-01T10:01:35.573Z,39.10
2023-02-01T10:04:08.697Z,34.83
2023-02-01T10:06:52.342Z,30.93
2023-02-01T10:09:36.376Z,32.40
2023-02-01T10:12:46.353Z,31.00
2023-02-01T10:15:27.592Z,30.40
2023-02-01T10:18:12.659Z,19.97
2023-02-01T10:20:54.136Z,22.57
2023-02-01T10:23:42.302Z,25.23
2023-02-01T10:26:20.088Z,32.80
2023-02-01T10:28:52.563Z,37.33
2023-02-01T10:31:23.663Z,27.87
2023-02-01T10:33:58.874Z,23.57
2023-02-01T10:36:33.414Z,27.90
2023-02-01T10:39:02.726Z,24.30
2023-02-01T10:41:36.761Z,27.77
2023-02-01T10:44:08.211Z,34.93
2023-02-01T10:46:37.507Z,28.53
2023-02-01T10:49:14.038Z,25.57
2023-02-01T10:51:48.168Z,20.23
2023-02-01T10:54:23.584Z,29.40
2023-02-01T10:56:54.732Z,22.77
2023-02-01T10:59:27.869Z,20.37
2023-02-01T11:02:03.628Z,22.50
2023-02-01T11:04:37.622Z,21.73
2023-02-01T11:07:15.504Z,21.17
2023-02-01T11:09:51.902Z,20.73
2023-02-01T11:12:29.815Z,23.57
2023-02-01T11:15:14.934Z,26.50
2023-02-01T11:17:46.575Z,23.30
2023-02-01T11:20:19.984Z,31.83
2023-02-01T11:22:50.635Z,26.17
2023-02-01T11:25:21.251Z,32.10
2023-02-01T11:27:55.314Z,40.33
2023-02-01T11:30:34.430Z,36.83
2023-02-01T11:33:06.537Z,37.27
2023-02-01T11:35:41.113Z,38.47
2023-02-01T11:38:22.067Z,36.83
2023-02-01T11:40:51.462Z,23.10
2023-02-01T11:43:26.406Z,12.93
2023-02-01T11:46:00.368Z,11.70
2023-02-01T11:48:31.344Z,10.73
2023-02-01T11:51:19.007Z,10.83
2023-02-01T11:54:04.963Z,12.13
2023-02-01T11:56:39.260Z,8.73
2023-02-01T11:59:34.108Z,8.93
2023-02-01T12:02:22.803Z,9.47
2023-02-01T12:05:13.972Z,8.60
2023-02-01T12:08:03.676Z,9.40
2023-02-01T12:10:41.600Z,15.57
2023-02-01T12:13:22.632Z,22.57
2023-02-01T12:16:07.159Z,19.93
2023-02-01T12:19:00.362Z,38.20
2023-02-01T12:21:44.858Z,102.70
2023-02-01T12:24:42.522Z,89.00
2023-02-01T12:27:30.235Z,47.30
2023-02-01T12:30:16.500Z,52.87
2023-02-01T12:32:57.760Z,49.90
2023-02-01T12:35:56.006Z,31.73
2023-02-01T12:38:42.209Z,31.10
2023-02-01T12:41:25.870Z,39.70
2023-02-01T12:44:00.330Z,33.37
2023-02-01T12:46:33.872Z,33.60
2023-02-01T12:49:06.020Z,35.37
2023-02-01T12:51:38.655Z,47.03
2023-02-01T12:54:15.678Z,52.33
2023-02-01T12:56:51.175Z,54.20
2023-02-01T12:59:37.914Z,39.57
2023-02-01T13:02:18.298Z,42.67
2023-02-01T13:05:00.157Z,46.13
2023-02-01T13:07:33.740Z,39.77
2023-02-01T13:10:07.558Z,43.77
2023-02-01T13:12:43.113Z,46.63
2023-02-01T13:15:18.128Z,36.13
2023-02-01T13:17:55.144Z,29.67
2023-02-01T13:20:31.014Z,31.10
2023-02-01T13:23:05.929Z,32.57
2023-02-01T13:25:40.935Z,33.33
2023-02-01T13:28:16.679Z,45.27
2023-02-01T13:31:00.222Z,77.00
2023-02-01T13:33:52.225Z,64.37
2023-02-01T13:36:58.819Z,73.87
2023-02-01T13:39:51.360Z,81.03
2023-02-01T13:42:23.645Z,65.60
2023-02-01T13:44:58.859Z,43.33
2023-02-01T13:47:31.600Z,41.60
2023-02-01T13:50:02.382Z,32.47
2023-02-01T13:52:39.856Z,33.90
2023-02-01T13:55:28.746Z,33.60
2023-02-01T13:58:16.233Z,32.83
2023-02-01T14:00:46.899Z,27.47
2023-02-01T14:03:21.820Z,28.07
2023-02-01T14:06:18.912Z,26.10
2023-02-01T14:09:09.950Z,27.63
2023-02-01T14:11:47.024Z,26.63
2023-02-01T14:14:43.276Z,33.63
2023-02-01T14:17:40.834Z,53.30
2023-02-01T14:20:45.052Z,88.27
2023-02-01T14:23:20.349Z,41.57
2023-02-01T14:26:12.842Z,26.03
2023-02-01T14:28:48.923Z,23.07
2023-02-01T14:31:53.292Z,61.33
2023-02-01T14:34:30.023Z,50.13
2023-02-01T14:37:03.061Z,48.40
2023-02-01T14:39:37.506Z,37.10
2023-02-01T14:42:18.297Z,38.23
2023-02-01T14:44:58.774Z,35.10
2023-02-01T14:47:34.384Z,55.03
2023-02-01T14:50:28.888Z,53.67
2023-02-01T14:53:32.680Z,62.57
2023-02-01T14:56:08.487Z,56.30
2023-02-01T14:58:44.184Z,55.73
2023-02-01T15:01:26.166Z,54.87
2023-02-01T15:04:01.024Z,48.23
2023-02-01T15:06:35.714Z,46.80
2023-02-01T15:09:10.410Z,39.60
2023-02-01T15:11:57.825Z,38.37
2023-02-01T15:14:27.872Z,35.20
2023-02-01T15:16:57.079Z,33.23
2023-02-01T15:19:27.928Z,34.50
2023-02-01T15:21:59.729Z,36.20
2023-02-01T15:24:30.585Z,37.23
2023-02-01T15:27:06.211Z,38.93
2023-02-01T15:29:35.844Z,39.07
2023-02-01T15:32:06.016Z,43.03
2023-02-01T15:34:48.280Z,42.67
2023-02-01T15:37:19.750Z,39.60
2023-02-01T15:40:23.223Z,37.63
2023-02-01T15:43:15.751Z,36.20
2023-02-01T15:45:45.783Z,32.40
2023-02-01T15:48:22.585Z,35.13
2023-02-01T15:50:52.431Z,38.13
2023-02-01T15:53:25.455Z,31.70
2023-02-01T15:55:57.854Z,36.70
2023-02-01T15:58:29.027Z,36.07
2023-02-01T16:01:00.935Z,38.23
2023-02-01T16:03:39.013Z,33.47
2023-02-01T16:06:10.417Z,39.67
2023-02-01T16:08:51.410Z,42.30
2023-02-01T16:11:31.721Z,49.27
2023-02-01T16:14:01.265Z,42.60
2023-02-01T16:16:31.446Z,35.47
2023-02-01T16:19:00.385Z,41.17
2023-02-01T16:21:29.192Z,33.27
2023-02-01T16:24:00.657Z,32.43
2023-02-01T16:26:29.552Z,28.23
2023-02-01T16:28:58.563Z,34.13
2023-02-01T16:31:31.209Z,33.53
2023-02-01T16:34:00.659Z,36.07
2023-02-01T16:36:29.769Z,48.23
2023-02-01T16:39:00.145Z,62.73
2023-02-01T16:41:30.247Z,63.70
2023-02-01T16:43:59.200Z,50.87
2023-02-01T16:46:38.174Z,58.00
2023-02-01T16:49:07.717Z,52.10
2023-02-01T16:51:37.115Z,67.37
2023-02-01T16:54:08.316Z,55.47
2023-02-01T16:56:37.808Z,52.47
2023-02-01T16:59:06.917Z,49.77
2023-02-01T17:01:35.815Z,75.60
2023-02-01T17:04:04.800Z,65.50
2023-02-01T17:06:34.823Z,48.27
2023-02-01T17:09:04.325Z,42.33
2023-02-01T17:11:34.788Z,40.93
2023-02-01T17:14:16.345Z,45.07
2023-02-01T17:16:46.601Z,56.80
2023-02-01T17:19:18.463Z,53.63
2023-02-01T17:21:50.013Z,59.47
2023-02-01T17:24:21.009Z,55.93
2023-02-01T17:26:52.509Z,55.63
2023-02-01T17:29:21.817Z,67.97
2023-02-01T17:31:52.828Z,102.88
2023-02-01T17:34:22.558Z,114.03
2023-02-01T17:36:51.893Z,134.47
2023-02-01T17:39:38.341Z,141.57
2023-02-01T17:42:13.133Z,112.97
2023-02-01T17:44:42.088Z,93.80
2023-02-01T17:47:10.929Z,81.13
2023-02-01T17:49:39.828Z,93.87
2023-02-01T17:52:11.913Z,95.90
2023-02-01T17:54:40.862Z,84.13
2023-02-01T17:57:14.209Z,78.67
2023-02-01T17:59:43.000Z,84.53
2023-02-01T18:02:21.239Z,78.23
2023-02-01T18:04:52.220Z,65.10
2023-02-01T18:07:21.404Z,86.77
2023-02-01T18:09:50.228Z,191.32
2023-02-01T18:12:24.209Z,164.40
2023-02-01T18:14:53.323Z,146.43
2023-02-01T18:17:22.147Z,161.13
2023-02-01T18:19:51.157Z,101.23
2023-02-01T18:22:23.621Z,83.30
2023-02-01T18:24:52.575Z,66.83
2023-02-01T18:27:24.106Z,56.55
2023-02-01T18:29:53.263Z,296.20
2023-02-01T18:32:22.192Z,53.75
2023-02-01T18:34:52.168Z,58.83
2023-02-01T18:37:21.040Z,50.90
2023-02-01T18:39:50.365Z,49.33
2023-02-01T18:42:19.313Z,102.68
2023-02-01T18:44:49.600Z,332.80
2023-02-01T18:47:18.548Z,200.63
2023-02-01T18:49:47.528Z,107.88
2023-02-01T18:52:16.616Z,238.20
2023-02-01T18:54:58.838Z,70.82
2023-02-01T18:57:28.969Z,56.13
2023-02-01T18:59:59.645Z,445.13
2023-02-01T19:02:28.805Z,598.70
2023-02-01T19:04:57.966Z,635.13
2023-02-01T19:07:26.890Z,734.53
2023-02-01T19:09:56.076Z,399.65
2023-02-01T19:12:24.943Z,159.93
2023-02-01T19:14:53.931Z,201.75
2023-02-01T19:17:24.727Z,262.92
2023-02-01T19:19:53.884Z,787.95
2023-02-01T19:22:22.785Z,5.18
2023-02-01T19:24:54.288Z,138.23
2023-02-01T19:27:23.504Z,162.18
2023-02-01T19:29:52.484Z,216.95
2023-02-01T19:32:21.620Z,179.88
2023-02-01T19:34:52.079Z,209.60
2023-02-01T19:37:21.669Z,157.52
2023-02-01T19:39:50.476Z,106.70
2023-02-01T19:42:19.352Z,50.20
2023-02-01T19:44:48.153Z,47.35
2023-02-01T19:47:16.937Z,49.45
2023-02-01T19:49:46.176Z,70.95
2023-02-01T19:52:16.471Z,77.97
2023-02-01T19:54:45.529Z,56.23
2023-02-01T19:57:14.366Z,73.50
2023-02-01T19:59:43.252Z,50.20
2023-02-01T20:02:15.130Z,47.15
2023-02-01T20:04:44.108Z,54.55
2023-02-01T20:07:13.346Z,61.42
2023-02-01T20:09:43.776Z,56.03
2023-02-01T20:12:13.309Z,69.78
2023-02-01T20:14:42.255Z,57.97
2023-02-01T20:17:15.194Z,62.00
2023-02-01T20:19:44.110Z,54.42
2023-02-01T20:22:13.040Z,68.00
2023-02-01T20:24:43.286Z,78.57
2023-02-01T20:27:13.445Z,76.57
2023-02-01T20:29:42.765Z,63.53
2023-02-01T20:32:11.797Z,74.00
2023-02-01T20:34:40.696Z,71.70
2023-02-01T20:37:09.564Z,67.20
2023-02-01T20:39:38.411Z,57.83
2023-02-01T20:42:08.729Z,59.10
2023-02-01T20:44:37.655Z,62.50
2023-02-01T20:47:07.082Z,98.75
2023-02-01T20:49:36.199Z,87.13
2023-02-01T20:52:05.070Z,82.82
2023-02-01T20:54:33.910Z,87.13
2023-02-01T20:57:02.938Z,76.95
2023-02-01T20:59:33.258Z,90.68
2023-02-01T21:02:02.836Z,95.07
2023-02-01T21:04:33.125Z,100.03
2023-02-01T21:07:03.145Z,90.75
2023-02-01T21:09:32.114Z,108.90
2023-02-01T21:12:00.978Z,113.05
2023-02-01T21:14:29.855Z,89.85
2023-02-01T21:17:00.391Z,75.07
2023-02-01T21:19:29.429Z,69.50
2023-02-01T21:21:58.306Z,61.38
2023-02-01T21:24:27.119Z,69.45
2023-02-01T21:26:56.180Z,63.33
2023-02-01T21:29:25.352Z,50.28
2023-02-01T21:31:54.697Z,48.43
2023-02-01T21:34:25.267Z,45.30
2023-02-01T21:36:54.100Z,47.90
2023-02-01T21:39:23.043Z,43.58
2023-02-01T21:42:20.881Z,44.05
2023-02-01T21:44:50.341Z,46.63
2023-02-01T21:47:21.241Z,46.17
2023-02-01T21:49:56.384Z,47.15
2023-02-01T21:52:26.220Z,44.73
2023-02-01T21:54:59.635Z,42.92
2023-02-01T21:57:30.206Z,46.40
2023-02-01T21:59:59.747Z,123.07
2023-02-01T22:02:29.193Z,53.00
2023-02-01T22:04:59.489Z,49.60
2023-02-01T22:07:28.525Z,49.83
2023-02-01T22:09:57.369Z,45.23
2023-02-01T22:12:26.159Z,43.00
2023-02-01T22:14:55.100Z,44.75
2023-02-01T22:17:23.982Z,42.55
2023-02-01T22:19:52.850Z,42.28
2023-02-01T22:22:23.171Z,41.97
2023-02-01T22:24:52.189Z,46.00
2023-02-01T22:27:21.015Z,44.78
2023-02-01T22:29:57.179Z,52.35
2023-02-01T22:32:26.025Z,54.83
2023-02-01T22:34:56.225Z,53.17
2023-02-01T22:37:26.592Z,57.50
2023-02-01T22:39:57.115Z,67.38
2023-02-01T22:42:26.458Z,57.63
2023-02-01T22:44:55.445Z,58.97
2023-02-01T22:47:24.247Z,55.65
2023-02-01T22:49:53.104Z,66.22
2023-02-01T22:52:21.893Z,64.20
2023-02-01T22:54:52.214Z,59.08
2023-02-01T22:57:21.166Z,71.82
2023-02-01T22:59:49.922Z,69.97
2023-02-01T23:02:18.785Z,58.03
2023-02-01T23:04:47.647Z,108.22
2023-02-01T23:07:16.430Z,78.85
2023-02-01T23:09:45.236Z,62.97
2023-02-01T23:12:15.566Z,69.95
2023-02-01T23:14:58.406Z,138.43
2023-02-01T23:17:27.310Z,136.35
2023-02-01T23:19:56.197Z,124.00
2023-02-01T23:22:25.082Z,84.40
2023-02-01T23:24:54.148Z,72.30
2023-02-01T23:27:24.467Z,64.88
2023-02-01T23:29:53.302Z,63.90
2023-02-01T23:32:22.496Z,79.60
2023-02-01T23:34:51.324Z,68.20
2023-02-01T23:37:20.340Z,65.25
2023-02-01T23:39:49.413Z,64.07
2023-02-01T23:42:18.232Z,70.93
2023-02-01T23:44:47.417Z,70.87
2023-02-01T23:47:16.348Z,85.18
2023-02-01T23:49:45.697Z,87.38
2023-02-01T23:52:14.628Z,88.63
2023-02-01T23:54:43.651Z,93.93
2023-02-01T23:57:12.466Z,112.28
2023-02-01T23:59:41.437Z,114.47
